createdAt,value
2019-02-25T00:01:07.924Z,-6.59
2019-02-25T00:03:34.231Z,-6.64
2019-02-25T00:06:00.535Z,-6.77
2019-02-25T00:08:26.860Z,-6.87
2019-02-25T00:10:53.162Z,-7.04
2019-02-25T00:13:19.475Z,-7.13
2019-02-25T00:15:45.779Z,-7.30
2019-02-25T00:18:12.091Z,-7.35
2019-02-25T00:20:38.398Z,-7.35
2019-02-25T00:23:04.735Z,-7.31
2019-02-25T00:25:31.043Z,-7.29
2019-02-25T00:27:57.351Z,-7.25
2019-02-25T00:30:23.650Z,-7.28
2019-02-25T00:32:49.960Z,-7.35
2019-02-25T00:35:16.259Z,-7.51
2019-02-25T00:37:42.584Z,-7.53
2019-02-25T00:40:08.887Z,-7.59
2019-02-25T00:42:35.203Z,-7.57
2019-02-25T00:45:01.503Z,-7.50
2019-02-25T00:47:27.807Z,-7.51
2019-02-25T00:49:54.115Z,-7.51
2019-02-25T00:52:20.424Z,-7.52
2019-02-25T00:54:46.738Z,-7.51
2019-02-25T00:57:13.045Z,-7.48
2019-02-25T00:59:39.352Z,-7.34
2019-02-25T01:02:05.670Z,-7.35
2019-02-25T01:04:31.977Z,-7.51
2019-02-25T01:06:58.284Z,-7.62
2019-02-25T01:09:24.587Z,-7.65
2019-02-25T01:11:50.896Z,-7.62
2019-02-25T01:14:17.201Z,-7.64
2019-02-25T01:16:43.756Z,-7.66
2019-02-25T01:19:09.998Z,-7.67
2019-02-25T01:21:36.564Z,-7.66
2019-02-25T01:24:02.878Z,-7.64
2019-02-25T01:26:29.193Z,-7.58
2019-02-25T01:28:55.500Z,-7.64
2019-02-25T01:31:21.803Z,-7.69
2019-02-25T01:33:48.112Z,-7.80
2019-02-25T01:36:14.416Z,-7.98
2019-02-25T01:38:40.728Z,-8.06
2019-02-25T01:41:07.057Z,-8.13
2019-02-25T01:43:33.355Z,-8.16
2019-02-25T01:45:59.666Z,-8.19
2019-02-25T01:48:25.970Z,-8.19
2019-02-25T01:50:52.281Z,-8.19
2019-02-25T01:53:18.587Z,-8.19
2019-02-25T01:55:44.899Z,-8.08
2019-02-25T01:58:11.202Z,-8.08
2019-02-25T02:00:37.520Z,-8.11
2019-02-25T02:03:03.820Z,-8.11
2019-02-25T02:05:30.129Z,-8.07
2019-02-25T02:07:56.431Z,-8.15
2019-02-25T02:10:22.740Z,-8.27
2019-02-25T02:12:49.042Z,-8.35
2019-02-25T02:15:15.425Z,-8.36
2019-02-25T02:17:41.735Z,-8.32
2019-02-25T02:20:08.027Z,-8.29
2019-02-25T02:22:34.336Z,-8.22
2019-02-25T02:25:00.641Z,-8.23
2019-02-25T02:27:26.946Z,-8.30
2019-02-25T02:29:53.252Z,-8.46
2019-02-25T02:32:19.560Z,-8.58
2019-02-25T02:34:45.871Z,-8.57
2019-02-25T02:37:12.178Z,-8.74
2019-02-25T02:39:38.481Z,-8.88
2019-02-25T02:42:04.796Z,-8.98
2019-02-25T02:44:31.102Z,-9.00
2019-02-25T02:46:57.407Z,-8.93
2019-02-25T02:49:23.716Z,-8.89
2019-02-25T02:51:50.039Z,-8.85
2019-02-25T02:54:16.337Z,-8.87
2019-02-25T02:56:42.640Z,-8.91
2019-02-25T02:59:08.957Z,-8.97
2019-02-25T03:01:35.263Z,-9.04
2019-02-25T03:04:01.569Z,-9.11
2019-02-25T03:06:27.874Z,-9.13
2019-02-25T03:08:54.178Z,-9.23
2019-02-25T03:11:20.488Z,-9.21
2019-02-25T03:13:46.797Z,-9.24
2019-02-25T03:16:13.099Z,-9.27
2019-02-25T03:18:39.406Z,-9.27
2019-02-25T03:21:05.716Z,-9.26
2019-02-25T03:23:32.026Z,-9.33
2019-02-25T03:25:58.335Z,-9.38
2019-02-25T03:28:24.649Z,-9.44
2019-02-25T03:30:50.957Z,-9.40
2019-02-25T03:33:17.293Z,-9.40
2019-02-25T03:35:43.616Z,-9.32
2019-02-25T03:38:09.926Z,-9.27
2019-02-25T03:40:36.243Z,-9.20
2019-02-25T03:43:02.542Z,-9.16
2019-02-25T03:45:28.849Z,-9.01
2019-02-25T03:47:55.156Z,-8.98
2019-02-25T03:50:21.476Z,-8.92
2019-02-25T03:52:47.766Z,-8.89
2019-02-25T03:55:14.073Z,-8.87
2019-02-25T03:57:40.383Z,-8.87
2019-02-25T04:00:06.688Z,-8.85
2019-02-25T04:02:33.000Z,-8.87
2019-02-25T04:04:59.314Z,-8.80
2019-02-25T04:07:25.637Z,-8.79
2019-02-25T04:09:51.936Z,-8.79
2019-02-25T04:12:18.246Z,-8.80
2019-02-25T04:14:44.550Z,-8.74
2019-02-25T04:17:10.857Z,-8.60
2019-02-25T04:19:37.163Z,-8.64
2019-02-25T04:22:03.471Z,-8.57
2019-02-25T04:24:29.780Z,-8.51
2019-02-25T04:26:56.079Z,-8.40
2019-02-25T04:29:22.398Z,-8.38
2019-02-25T04:31:48.709Z,-8.33
2019-02-25T04:34:15.039Z,-8.34
2019-02-25T04:36:41.344Z,-8.32
2019-02-25T04:39:07.658Z,-8.14
2019-02-25T04:41:33.959Z,-8.02
2019-02-25T04:44:00.272Z,-8.09
2019-02-25T04:46:26.572Z,-8.12
2019-02-25T04:48:52.885Z,-8.17
2019-02-25T04:51:19.212Z,-8.19
2019-02-25T04:53:45.520Z,-8.19
2019-02-25T04:56:11.842Z,-8.25
2019-02-25T04:58:38.149Z,-8.28
2019-02-25T05:01:04.452Z,-8.20
2019-02-25T05:03:30.760Z,-8.12
2019-02-25T05:05:57.063Z,-8.04
2019-02-25T05:08:23.371Z,-8.10
2019-02-25T05:10:49.675Z,-8.16
2019-02-25T05:13:15.983Z,-8.11
2019-02-25T05:15:42.287Z,-8.14
2019-02-25T05:18:08.596Z,-8.09
2019-02-25T05:20:34.900Z,-7.99
2019-02-25T05:23:01.205Z,-7.94
2019-02-25T05:25:27.519Z,-7.95
2019-02-25T05:27:53.827Z,-7.80
2019-02-25T05:30:20.137Z,-7.76
2019-02-25T05:32:46.459Z,-7.84
2019-02-25T05:35:12.814Z,-7.65
2019-02-25T05:37:39.093Z,-7.26
2019-02-25T05:40:05.395Z,-6.99
2019-02-25T05:42:31.710Z,-6.86
2019-02-25T05:44:58.015Z,-6.80
2019-02-25T05:47:24.331Z,-6.67
2019-02-25T05:49:50.632Z,-6.45
2019-02-25T05:52:16.941Z,-6.13
2019-02-25T05:54:43.246Z,-6.03
2019-02-25T05:57:09.579Z,-5.86
2019-02-25T05:59:35.888Z,-5.49
2019-02-25T06:02:02.200Z,-5.19
2019-02-25T06:04:28.557Z,-5.32
2019-02-25T06:06:54.947Z,-5.57
2019-02-25T06:09:21.181Z,-5.55
2019-02-25T06:11:47.488Z,-5.75
2019-02-25T06:14:13.801Z,-5.82
2019-02-25T06:16:40.118Z,-5.94
2019-02-25T06:19:06.432Z,-5.78
2019-02-25T06:21:32.737Z,-5.52
2019-02-25T06:23:59.047Z,-5.29
2019-02-25T06:26:27.287Z,-5.15
2019-02-25T06:28:53.672Z,-4.76
2019-02-25T06:31:19.945Z,-4.86
2019-02-25T06:33:47.570Z,-4.67
2019-02-25T06:36:12.556Z,-4.66
2019-02-25T06:38:38.941Z,-4.76
2019-02-25T06:41:05.251Z,-4.26
2019-02-25T06:43:31.557Z,-3.93
2019-02-25T06:45:57.873Z,-3.98
2019-02-25T06:48:24.186Z,-4.00
2019-02-25T06:50:50.513Z,-3.76
2019-02-25T06:53:16.943Z,-3.50
2019-02-25T06:55:43.323Z,-3.25
2019-02-25T06:58:09.628Z,-3.18
2019-02-25T07:00:36.077Z,-2.88
2019-02-25T07:03:02.364Z,-2.92
2019-02-25T07:05:29.043Z,-3.18
2019-02-25T07:07:55.389Z,-3.06
2019-02-25T07:10:21.689Z,-3.27
2019-02-25T07:12:47.997Z,-2.76
2019-02-25T07:15:14.334Z,-2.92
2019-02-25T07:17:40.645Z,-2.97
2019-02-25T07:20:06.955Z,-2.62
2019-02-25T07:22:33.266Z,-2.60
2019-02-25T07:24:59.631Z,-2.33
2019-02-25T07:27:25.940Z,-2.29
2019-02-25T07:29:52.253Z,-2.02
2019-02-25T07:32:18.565Z,-1.90
2019-02-25T07:34:44.880Z,-1.89
2019-02-25T07:37:11.190Z,-1.55
2019-02-25T07:39:37.501Z,-1.61
2019-02-25T07:42:03.865Z,-1.67
2019-02-25T07:44:30.211Z,-1.64
2019-02-25T07:46:56.528Z,-1.43
2019-02-25T07:49:22.832Z,-1.72
2019-02-25T07:51:49.147Z,-1.00
2019-02-25T07:54:15.468Z,-0.49
2019-02-25T07:56:41.781Z,-0.35
2019-02-25T07:59:08.092Z,-0.47
2019-02-25T08:01:34.425Z,-0.33
2019-02-25T08:04:00.741Z,0.04
2019-02-25T08:06:27.057Z,-0.38
2019-02-25T08:08:53.394Z,-0.18
2019-02-25T08:11:21.744Z,0.11
2019-02-25T08:13:46.023Z,-0.03
2019-02-25T08:16:12.329Z,0.67
2019-02-25T08:18:38.643Z,1.16
2019-02-25T08:21:04.964Z,1.52
2019-02-25T08:23:31.347Z,1.59
2019-02-25T08:25:57.657Z,1.61
2019-02-25T08:28:23.979Z,1.52
2019-02-25T08:30:50.293Z,1.13
2019-02-25T08:33:16.614Z,1.53
2019-02-25T08:35:42.939Z,2.03
2019-02-25T08:38:09.243Z,1.73
2019-02-25T08:40:35.553Z,1.61
2019-02-25T08:43:01.874Z,1.61
2019-02-25T08:45:28.183Z,1.82
2019-02-25T08:47:54.495Z,2.29
2019-02-25T08:50:20.844Z,2.30
2019-02-25T08:52:47.160Z,2.07
2019-02-25T08:55:13.464Z,2.06
2019-02-25T08:57:39.779Z,1.93
2019-02-25T09:00:06.089Z,1.31
2019-02-25T09:02:32.401Z,1.47
2019-02-25T09:04:58.713Z,1.51
2019-02-25T09:07:25.023Z,2.11
2019-02-25T09:09:51.328Z,2.17
2019-02-25T09:12:17.661Z,2.71
2019-02-25T09:14:43.970Z,2.78
2019-02-25T09:17:12.480Z,2.55
2019-02-25T09:19:36.637Z,2.16
2019-02-25T09:22:02.962Z,2.10
2019-02-25T09:24:29.256Z,2.45
2019-02-25T09:26:55.696Z,2.50
2019-02-25T09:29:22.081Z,2.68
2019-02-25T09:31:48.400Z,3.27
2019-02-25T09:34:14.703Z,3.94
2019-02-25T09:36:41.016Z,4.15
2019-02-25T09:39:07.324Z,4.57
2019-02-25T09:41:33.685Z,5.02
2019-02-25T09:44:00.000Z,5.11
2019-02-25T09:46:26.311Z,4.89
2019-02-25T09:48:52.616Z,4.32
2019-02-25T09:51:18.934Z,4.30
2019-02-25T09:53:48.016Z,3.75
2019-02-25T09:56:14.332Z,4.11
2019-02-25T09:58:40.646Z,4.36
2019-02-25T10:01:06.951Z,4.11
2019-02-25T10:03:33.270Z,4.22
2019-02-25T10:05:59.581Z,4.93
2019-02-25T10:08:25.891Z,5.15
2019-02-25T10:10:52.195Z,5.19
2019-02-25T10:13:18.532Z,5.35
2019-02-25T10:15:44.839Z,4.87
2019-02-25T10:18:11.144Z,4.60
2019-02-25T10:20:37.469Z,4.97
2019-02-25T10:23:03.777Z,5.70
2019-02-25T10:25:30.089Z,5.54
2019-02-25T10:27:56.402Z,5.41
2019-02-25T10:30:22.860Z,5.20
2019-02-25T10:32:49.167Z,5.07
2019-02-25T10:35:15.482Z,4.62
2019-02-25T10:37:43.670Z,4.54
2019-02-25T10:40:08.121Z,4.25
2019-02-25T10:42:36.100Z,3.97
2019-02-25T10:45:02.539Z,3.57
2019-02-25T10:47:27.049Z,3.18
2019-02-25T10:49:53.362Z,3.02
2019-02-25T10:52:19.667Z,3.15
2019-02-25T10:54:47.794Z,3.45
2019-02-25T10:57:12.321Z,3.40
2019-02-25T10:59:39.529Z,3.04
2019-02-25T11:02:04.929Z,3.35
2019-02-25T11:04:31.240Z,3.05
2019-02-25T11:06:58.979Z,3.12
2019-02-25T11:09:23.867Z,3.38
2019-02-25T11:11:50.688Z,3.05
2019-02-25T11:14:16.505Z,3.16
2019-02-25T11:16:44.000Z,2.96
2019-02-25T11:19:09.142Z,2.98
2019-02-25T11:21:37.518Z,3.45
2019-02-25T11:24:01.780Z,3.44
2019-02-25T11:26:28.885Z,2.74
2019-02-25T11:28:54.453Z,2.53
2019-02-25T11:31:24.042Z,2.52
2019-02-25T11:33:47.081Z,2.70
2019-02-25T11:36:15.436Z,2.75
2019-02-25T11:38:39.697Z,3.32
2019-02-25T11:41:07.167Z,4.42
2019-02-25T11:43:32.345Z,4.62
2019-02-25T11:45:58.641Z,4.75
2019-02-25T11:48:24.979Z,4.91
2019-02-25T11:50:51.317Z,4.45
2019-02-25T11:53:17.629Z,4.21
2019-02-25T11:55:43.938Z,4.42
2019-02-25T11:58:10.256Z,4.08
2019-02-25T12:00:36.564Z,4.04
2019-02-25T12:03:02.918Z,3.77
2019-02-25T12:05:29.238Z,3.52
2019-02-25T12:07:55.548Z,3.85
2019-02-25T12:10:21.868Z,3.51
2019-02-25T12:12:48.167Z,3.39
2019-02-25T12:15:14.477Z,3.20
2019-02-25T12:17:40.822Z,3.88
2019-02-25T12:20:07.101Z,4.79
2019-02-25T12:22:33.422Z,6.01
2019-02-25T12:24:59.810Z,6.18
2019-02-25T12:27:26.162Z,5.99
2019-02-25T12:29:52.470Z,5.41
2019-02-25T12:32:18.781Z,5.35
2019-02-25T12:34:45.087Z,5.48
2019-02-25T12:37:11.397Z,5.21
2019-02-25T12:39:37.707Z,5.91
2019-02-25T12:42:04.014Z,5.83
2019-02-25T12:44:30.326Z,5.79
2019-02-25T12:46:56.640Z,6.61
2019-02-25T12:49:22.941Z,7.10
2019-02-25T12:51:49.252Z,7.22
2019-02-25T12:54:15.571Z,6.49
2019-02-25T12:56:41.883Z,6.42
2019-02-25T12:59:08.244Z,6.18
2019-02-25T13:01:34.558Z,5.84
2019-02-25T13:04:00.870Z,5.44
2019-02-25T13:06:27.176Z,5.26
2019-02-25T13:08:53.486Z,5.07
2019-02-25T13:11:20.157Z,4.70
2019-02-25T13:13:46.484Z,3.96
2019-02-25T13:16:12.790Z,4.66
2019-02-25T13:18:39.095Z,5.53
2019-02-25T13:21:05.407Z,5.74
2019-02-25T13:23:31.715Z,6.33
2019-02-25T13:26:07.146Z,6.52
2019-02-25T13:28:26.225Z,6.29
2019-02-25T13:30:50.709Z,6.16
2019-02-25T13:33:17.025Z,5.87
2019-02-25T13:35:43.329Z,5.20
2019-02-25T13:38:09.660Z,4.47
2019-02-25T13:40:35.979Z,4.50
2019-02-25T13:43:02.285Z,4.39
2019-02-25T13:45:28.592Z,4.21
2019-02-25T13:47:54.902Z,4.10
2019-02-25T13:50:21.223Z,4.18
2019-02-25T13:52:48.165Z,4.14
2019-02-25T13:55:13.851Z,4.48
2019-02-25T13:57:40.161Z,4.24
2019-02-25T14:00:06.464Z,4.22
2019-02-25T14:02:32.777Z,3.58
2019-02-25T14:04:59.083Z,3.70
2019-02-25T14:07:25.398Z,4.19
2019-02-25T14:09:51.707Z,4.06
2019-02-25T14:12:18.019Z,3.67
2019-02-25T14:14:44.330Z,3.61
2019-02-25T14:17:10.693Z,3.34
2019-02-25T14:19:36.996Z,3.26
2019-02-25T14:22:03.611Z,3.57
2019-02-25T14:24:29.936Z,3.48
2019-02-25T14:26:56.248Z,3.22
2019-02-25T14:29:26.193Z,3.24
2019-02-25T14:31:50.950Z,3.24
2019-02-25T14:34:15.178Z,3.24
2019-02-25T14:36:41.492Z,3.25
2019-02-25T14:39:07.801Z,2.95
2019-02-25T14:41:34.121Z,3.06
2019-02-25T14:44:00.432Z,3.14
2019-02-25T14:46:26.884Z,3.01
2019-02-25T14:48:53.043Z,3.04
2019-02-25T14:51:19.360Z,3.02
2019-02-25T14:53:47.449Z,3.01
2019-02-25T14:56:12.012Z,3.03
2019-02-25T14:58:40.205Z,3.00
2019-02-25T15:01:04.611Z,2.83
2019-02-25T15:03:30.919Z,2.68
2019-02-25T15:05:59.143Z,2.63
2019-02-25T15:08:24.111Z,2.50
2019-02-25T15:10:49.855Z,2.54
2019-02-25T15:13:16.164Z,2.45
2019-02-25T15:15:44.082Z,2.46
2019-02-25T15:18:08.814Z,2.39
2019-02-25T15:20:35.111Z,2.41
2019-02-25T15:23:01.422Z,2.25
2019-02-25T15:25:31.178Z,2.17
2019-02-25T15:27:54.034Z,2.15
2019-02-25T15:30:20.709Z,2.12
2019-02-25T15:32:55.650Z,2.22
2019-02-25T15:35:12.944Z,2.24
2019-02-25T15:37:40.622Z,2.22
2019-02-25T15:40:05.560Z,2.35
2019-02-25T15:42:32.418Z,2.44
2019-02-25T15:44:58.199Z,2.53
2019-02-25T15:47:24.515Z,2.58
2019-02-25T15:49:50.823Z,2.63
2019-02-25T15:52:18.798Z,2.63
2019-02-25T15:54:43.796Z,2.70
2019-02-25T15:57:09.774Z,2.74
2019-02-25T15:59:36.091Z,2.80
2019-02-25T16:02:03.467Z,2.74
2019-02-25T16:04:30.214Z,2.77
2019-02-25T16:06:57.422Z,2.79
2019-02-25T16:09:23.830Z,2.75
2019-02-25T16:11:48.177Z,2.71
2019-02-25T16:14:14.514Z,2.71
2019-02-25T16:16:40.847Z,2.70
2019-02-25T16:19:07.221Z,2.66
2019-02-25T16:21:33.688Z,2.59
2019-02-25T16:24:02.023Z,2.65
2019-02-25T16:26:26.386Z,2.60
2019-02-25T16:28:53.214Z,2.55
2019-02-25T16:31:19.032Z,2.61
2019-02-25T16:33:46.723Z,2.68
2019-02-25T16:36:11.663Z,2.73
2019-02-25T16:38:38.065Z,2.69
2019-02-25T16:41:06.228Z,2.66
2019-02-25T16:43:31.497Z,2.68
2019-02-25T16:45:59.482Z,2.65
2019-02-25T16:48:26.058Z,2.60
2019-02-25T16:50:50.664Z,2.64
2019-02-25T16:53:18.295Z,2.65
2019-02-25T16:55:45.069Z,2.57
2019-02-25T16:58:12.917Z,2.49
2019-02-25T17:00:37.261Z,2.44
2019-02-25T17:03:04.303Z,2.52
2019-02-25T17:05:28.631Z,2.47
2019-02-25T17:07:56.106Z,2.36
2019-02-25T17:10:24.148Z,2.28
2019-02-25T17:12:48.270Z,2.23
2019-02-25T17:15:14.000Z,2.15
2019-02-25T17:17:40.313Z,1.93
2019-02-25T17:20:10.509Z,1.82
2019-02-25T17:22:33.327Z,1.72
2019-02-25T17:25:00.306Z,1.66
2019-02-25T17:27:25.942Z,1.55
2019-02-25T17:29:53.851Z,1.53
2019-02-25T17:32:19.374Z,1.53
2019-02-25T17:34:44.873Z,1.60
2019-02-25T17:37:12.639Z,1.63
2019-02-25T17:39:38.029Z,1.60
2019-02-25T17:42:05.582Z,1.53
2019-02-25T17:44:32.025Z,1.44
2019-02-25T17:46:57.926Z,1.43
2019-02-25T17:49:22.799Z,1.41
2019-02-25T17:51:51.143Z,1.36
2019-02-25T17:54:16.877Z,1.37
2019-02-25T17:56:43.147Z,1.29
2019-02-25T17:59:09.634Z,1.22
2019-02-25T18:01:34.341Z,1.17
2019-02-25T18:04:02.539Z,1.19
2019-02-25T18:06:30.148Z,1.25
2019-02-25T18:08:55.293Z,1.16
2019-02-25T18:11:20.285Z,1.07
2019-02-25T18:13:46.779Z,1.07
2019-02-25T18:16:14.009Z,1.05
2019-02-25T18:18:39.178Z,1.04
2019-02-25T18:21:06.369Z,1.07
2019-02-25T18:23:31.180Z,1.06
2019-02-25T18:25:58.737Z,0.95
2019-02-25T18:28:23.812Z,0.90
2019-02-25T18:30:50.122Z,0.82
2019-02-25T18:33:17.409Z,0.81
2019-02-25T18:35:43.433Z,0.83
2019-02-25T18:38:09.637Z,0.80
2019-02-25T18:40:36.462Z,0.70
2019-02-25T18:43:02.362Z,0.58
2019-02-25T18:45:29.047Z,0.58
2019-02-25T18:47:55.419Z,0.60
2019-02-25T18:50:22.220Z,0.60
2019-02-25T18:52:48.056Z,0.59
2019-02-25T18:55:14.432Z,0.48
2019-02-25T18:57:41.709Z,0.45
2019-02-25T19:00:07.065Z,0.50
2019-02-25T19:02:33.697Z,0.43
2019-02-25T19:05:01.420Z,0.38
2019-02-25T19:07:27.308Z,0.41
2019-02-25T19:09:53.856Z,0.38
2019-02-25T19:12:18.643Z,0.28
2019-02-25T19:14:44.976Z,0.22
2019-02-25T19:17:11.291Z,0.18
2019-02-25T19:19:38.465Z,0.11
2019-02-25T19:22:05.870Z,0.02
2019-02-25T19:24:33.258Z,0.01
2019-02-25T19:26:56.564Z,0.09
2019-02-25T19:29:23.837Z,0.18
2019-02-25T19:31:49.352Z,0.15
2019-02-25T19:34:16.725Z,0.17
2019-02-25T19:36:43.061Z,0.33
2019-02-25T19:39:10.049Z,0.29
2019-02-25T19:41:35.863Z,0.33
2019-02-25T19:44:04.111Z,0.41
2019-02-25T19:46:28.381Z,0.42
2019-02-25T19:48:56.009Z,0.30
2019-02-25T19:51:22.876Z,0.26
2019-02-25T19:53:47.543Z,0.48
2019-02-25T19:56:13.632Z,1.16
2019-02-25T19:58:41.110Z,1.42
2019-02-25T20:01:08.451Z,1.36
2019-02-25T20:03:33.067Z,1.22
2019-02-25T20:05:58.897Z,1.16
2019-02-25T20:08:25.194Z,0.82
2019-02-25T20:10:54.352Z,0.82
2019-02-25T20:13:17.849Z,0.73
2019-02-25T20:15:46.321Z,0.77
2019-02-25T20:18:11.792Z,0.50
2019-02-25T20:20:38.448Z,0.11
2019-02-25T20:23:04.407Z,-0.01
2019-02-25T20:25:29.481Z,-0.17
2019-02-25T20:27:59.896Z,-0.33
2019-02-25T20:30:23.692Z,-0.40
2019-02-25T20:32:48.430Z,-0.40
2019-02-25T20:35:15.741Z,-0.39
2019-02-25T20:37:41.149Z,-0.38
2019-02-25T20:40:07.459Z,-0.41
2019-02-25T20:42:33.798Z,-0.34
2019-02-25T20:45:02.440Z,-0.29
2019-02-25T20:47:28.503Z,-0.35
2019-02-25T20:49:55.619Z,-0.27
2019-02-25T20:52:20.225Z,-0.34
2019-02-25T20:54:47.206Z,-0.39
2019-02-25T20:57:12.577Z,-0.28
2019-02-25T20:59:38.002Z,-0.24
2019-02-25T21:02:07.188Z,-0.22
2019-02-25T21:04:30.604Z,-0.20
2019-02-25T21:06:56.916Z,-0.26
2019-02-25T21:09:23.224Z,-0.27
2019-02-25T21:11:49.570Z,-0.32
2019-02-25T21:14:15.881Z,-0.40
2019-02-25T21:16:42.225Z,-0.47
2019-02-25T21:19:10.798Z,-0.47
2019-02-25T21:21:36.728Z,-0.47
2019-02-25T21:24:01.912Z,-0.47
2019-02-25T21:26:29.468Z,-0.50
2019-02-25T21:28:55.969Z,-0.51
2019-02-25T21:31:21.383Z,-0.57
2019-02-25T21:33:49.866Z,-0.54
2019-02-25T21:36:12.743Z,-0.57
2019-02-25T21:38:39.054Z,-0.53
2019-02-25T21:41:06.976Z,-0.53
2019-02-25T21:43:31.703Z,-0.54
2019-02-25T21:46:00.956Z,-0.51
2019-02-25T21:48:25.632Z,-0.48
2019-02-25T21:50:50.648Z,-0.50
2019-02-25T21:53:18.397Z,-0.52
2019-02-25T21:55:43.351Z,-0.50
2019-02-25T21:58:09.647Z,-0.52
2019-02-25T22:00:38.603Z,-0.44
2019-02-25T22:03:05.987Z,-0.45
2019-02-25T22:05:28.610Z,-0.45
2019-02-25T22:07:57.316Z,-0.40
2019-02-25T22:10:21.239Z,-0.40
2019-02-25T22:12:47.549Z,-0.41
2019-02-25T22:15:15.905Z,-0.42
2019-02-25T22:17:40.705Z,-0.45
2019-02-25T22:20:09.555Z,-0.49
2019-02-25T22:22:33.231Z,-0.63
2019-02-25T22:25:04.078Z,-0.64
2019-02-25T22:27:25.462Z,-0.68
2019-02-25T22:29:51.804Z,-0.74
2019-02-25T22:32:18.111Z,-0.74
2019-02-25T22:34:44.416Z,-0.75
2019-02-25T22:37:14.505Z,-0.77
2019-02-25T22:39:38.380Z,-0.79
2019-02-25T22:42:05.209Z,-0.82
2019-02-25T22:44:31.761Z,-0.85
2019-02-25T22:46:56.012Z,-0.84
2019-02-25T22:49:24.094Z,-0.86
2019-02-25T22:51:51.699Z,-0.88
2019-02-25T22:54:17.040Z,-0.96
2019-02-25T22:56:41.270Z,-0.97
2019-02-25T22:59:07.585Z,-0.96
2019-02-25T23:01:36.825Z,-0.93
2019-02-25T23:04:00.263Z,-0.93
2019-02-25T23:06:26.574Z,-0.99
2019-02-25T23:08:53.304Z,-0.99
2019-02-25T23:11:21.491Z,-1.00
2019-02-25T23:13:47.447Z,-1.02
2019-02-25T23:16:13.235Z,-1.02
2019-02-25T23:18:38.143Z,-1.01
2019-02-25T23:21:04.443Z,-1.03
2019-02-25T23:23:32.883Z,-1.09
2019-02-25T23:25:58.488Z,-1.14
2019-02-25T23:28:25.410Z,-1.12
2019-02-25T23:30:49.764Z,-1.15
2019-02-25T23:33:17.430Z,-1.16
2019-02-25T23:35:44.705Z,-1.14
2019-02-25T23:38:08.735Z,-1.14
2019-02-25T23:40:35.972Z,-1.15
2019-02-25T23:43:03.224Z,-1.11
2019-02-25T23:45:27.668Z,-1.11
2019-02-25T23:47:57.634Z,-1.11
2019-02-25T23:50:20.291Z,-1.08
2019-02-25T23:52:46.633Z,-1.03
2019-02-25T23:55:16.525Z,-1.01
2019-02-25T23:57:39.265Z,-0.73
